sensor_id;sensor_type;location;lat;lon;timestamp;P1;durP1;ratioP1;P2;durP2;ratioP2
71600;SDS011;59446;52.192;4.628;2022-07-06T00:01:01;1.40;;;0.60;;
71600;SDS011;59446;52.192;4.628;2022-07-06T00:03:27;1.00;;;0.67;;
71600;SDS011;59446;52.192;4.628;2022-07-06T00:05:52;1.20;;;0.63;;
71600;SDS011;59446;52.192;4.628;2022-07-06T00:08:17;1.07;;;0.60;;
71600;SDS011;59446;52.192;4.628;2022-07-06T00:10:43;1.10;;;0.50;;
71600;SDS011;59446;52.192;4.628;2022-07-06T00:13:08;1.67;;;0.68;;
71600;SDS011;59446;52.192;4.628;2022-07-06T00:15:34;1.50;;;0.57;;
71600;SDS011;59446;52.192;4.628;2022-07-06T00:17:59;0.50;;;0.50;;
71600;SDS011;59446;52.192;4.628;2022-07-06T00:20:25;2.57;;;0.70;;
71600;SDS011;59446;52.192;4.628;2022-07-06T00:22:50;1.00;;;0.50;;
71600;SDS011;59446;52.192;4.628;2022-07-06T00:25:16;1.90;;;0.50;;
71600;SDS011;59446;52.192;4.628;2022-07-06T00:27:41;0.47;;;0.47;;
71600;SDS011;59446;52.192;4.628;2022-07-06T00:30:07;0.90;;;0.50;;
71600;SDS011;59446;52.192;4.628;2022-07-06T00:32:32;1.97;;;0.57;;
71600;SDS011;59446;52.192;4.628;2022-07-06T00:34:58;2.25;;;0.60;;
71600;SDS011;59446;52.192;4.628;2022-07-06T00:37:23;1.60;;;0.50;;
71600;SDS011;59446;52.192;4.628;2022-07-06T00:39:48;0.60;;;0.50;;
71600;SDS011;59446;52.192;4.628;2022-07-06T00:42:14;0.60;;;0.50;;
71600;SDS011;59446;52.192;4.628;2022-07-06T00:44:39;0.67;;;0.57;;
71600;SDS011;59446;52.192;4.628;2022-07-06T00:47:05;0.50;;;0.50;;
71600;SDS011;59446;52.192;4.628;2022-07-06T00:49:30;1.07;;;0.50;;
71600;SDS011;59446;52.192;4.628;2022-07-06T00:52:14;3.80;;;0.80;;
71600;SDS011;59446;52.192;4.628;2022-07-06T00:54:40;0.83;;;0.60;;
71600;SDS011;59446;52.192;4.628;2022-07-06T00:57:07;1.50;;;1.00;;
71600;SDS011;59446;52.192;4.628;2022-07-06T00:59:33;1.23;;;0.60;;
71600;SDS011;59446;52.192;4.628;2022-07-06T01:01:58;1.40;;;0.70;;
71600;SDS011;59446;52.192;4.628;2022-07-06T01:04:24;1.23;;;0.53;;
71600;SDS011;59446;52.192;4.628;2022-07-06T01:06:49;2.40;;;0.50;;
71600;SDS011;59446;52.192;4.628;2022-07-06T01:09:14;0.67;;;0.43;;
71600;SDS011;59446;52.192;4.628;2022-07-06T01:11:40;0.85;;;0.73;;
71600;SDS011;59446;52.192;4.628;2022-07-06T01:14:06;1.10;;;0.60;;
71600;SDS011;59446;52.192;4.628;2022-07-06T01:16:32;1.52;;;0.50;;
71600;SDS011;59446;52.192;4.628;2022-07-06T01:18:58;0.87;;;0.60;;
71600;SDS011;59446;52.192;4.628;2022-07-06T01:21:23;0.97;;;0.60;;
71600;SDS011;59446;52.192;4.628;2022-07-06T01:23:49;1.60;;;0.60;;
71600;SDS011;59446;52.192;4.628;2022-07-06T01:26:15;0.50;;;0.50;;
71600;SDS011;59446;52.192;4.628;2022-07-06T01:28:44;1.03;;;0.60;;
71600;SDS011;59446;52.192;4.628;2022-07-06T01:31:13;1.77;;;0.70;;
71600;SDS011;59446;52.192;4.628;2022-07-06T01:33:47;1.23;;;0.57;;
71600;SDS011;59446;52.192;4.628;2022-07-06T01:36:14;0.57;;;0.53;;
71600;SDS011;59446;52.192;4.628;2022-07-06T01:38:44;0.97;;;0.57;;
71600;SDS011;59446;52.192;4.628;2022-07-06T01:41:12;0.70;;;0.53;;
71600;SDS011;59446;52.192;4.628;2022-07-06T01:43:38;2.00;;;0.70;;
71600;SDS011;59446;52.192;4.628;2022-07-06T01:46:04;1.20;;;0.53;;
71600;SDS011;59446;52.192;4.628;2022-07-06T01:48:29;0.98;;;0.50;;
71600;SDS011;59446;52.192;4.628;2022-07-06T01:50:55;0.60;;;0.50;;
71600;SDS011;59446;52.192;4.628;2022-07-06T01:53:20;2.87;;;0.77;;
71600;SDS011;59446;52.192;4.628;2022-07-06T01:55:46;2.80;;;0.77;;
71600;SDS011;59446;52.192;4.628;2022-07-06T01:58:11;0.50;;;0.50;;
71600;SDS011;59446;52.192;4.628;2022-07-06T02:00:36;4.00;;;0.60;;
71600;SDS011;59446;52.192;4.628;2022-07-06T02:03:02;0.53;;;0.40;;
71600;SDS011;59446;52.192;4.628;2022-07-06T02:05:27;1.00;;;0.60;;
71600;SDS011;59446;52.192;4.628;2022-07-06T02:07:53;0.87;;;0.70;;
71600;SDS011;59446;52.192;4.628;2022-07-06T02:10:18;1.13;;;0.50;;
71600;SDS011;59446;52.192;4.628;2022-07-06T02:12:44;0.50;;;0.50;;
71600;SDS011;59446;52.192;4.628;2022-07-06T02:15:09;0.57;;;0.50;;
71600;SDS011;59446;52.192;4.628;2022-07-06T02:17:35;0.73;;;0.63;;
71600;SDS011;59446;52.192;4.628;2022-07-06T02:20:00;1.67;;;0.60;;
71600;SDS011;59446;52.192;4.628;2022-07-06T02:22:25;1.87;;;0.60;;
71600;SDS011;59446;52.192;4.628;2022-07-06T02:24:51;0.40;;;0.40;;
71600;SDS011;59446;52.192;4.628;2022-07-06T02:27:16;0.80;;;0.53;;
71600;SDS011;59446;52.192;4.628;2022-07-06T02:29:42;2.13;;;0.57;;
71600;SDS011;59446;52.192;4.628;2022-07-06T02:32:07;0.50;;;0.50;;
71600;SDS011;59446;52.192;4.628;2022-07-06T02:34:33;0.40;;;0.40;;
71600;SDS011;59446;52.192;4.628;2022-07-06T02:36:58;0.53;;;0.53;;
71600;SDS011;59446;52.192;4.628;2022-07-06T02:39:25;0.40;;;0.40;;
71600;SDS011;59446;52.192;4.628;2022-07-06T02:41:50;1.67;;;0.60;;
71600;SDS011;59446;52.192;4.628;2022-07-06T02:44:16;1.13;;;0.50;;
71600;SDS011;59446;52.192;4.628;2022-07-06T02:46:41;1.17;;;0.70;;
71600;SDS011;59446;52.192;4.628;2022-07-06T02:49:06;1.00;;;0.77;;
71600;SDS011;59446;52.192;4.628;2022-07-06T02:51:32;0.60;;;0.60;;
71600;SDS011;59446;52.192;4.628;2022-07-06T02:53:57;0.60;;;0.50;;
71600;SDS011;59446;52.192;4.628;2022-07-06T02:56:23;1.97;;;0.70;;
71600;SDS011;59446;52.192;4.628;2022-07-06T02:58:48;0.70;;;0.50;;
71600;SDS011;59446;52.192;4.628;2022-07-06T03:01:13;0.70;;;0.60;;
71600;SDS011;59446;52.192;4.628;2022-07-06T03:03:39;3.60;;;0.90;;
71600;SDS011;59446;52.192;4.628;2022-07-06T03:06:04;0.87;;;0.50;;
71600;SDS011;59446;52.192;4.628;2022-07-06T03:08:30;1.33;;;0.50;;
71600;SDS011;59446;52.192;4.628;2022-07-06T03:10:55;1.00;;;0.60;;
71600;SDS011;59446;52.192;4.628;2022-07-06T03:13:20;0.50;;;0.50;;
71600;SDS011;59446;52.192;4.628;2022-07-06T03:15:46;2.78;;;0.75;;
71600;SDS011;59446;52.192;4.628;2022-07-06T03:18:11;0.77;;;0.50;;
71600;SDS011;59446;52.192;4.628;2022-07-06T03:20:36;1.00;;;0.70;;
71600;SDS011;59446;52.192;4.628;2022-07-06T03:23:02;1.10;;;0.60;;
71600;SDS011;59446;52.192;4.628;2022-07-06T03:25:27;1.90;;;0.50;;
71600;SDS011;59446;52.192;4.628;2022-07-06T03:27:52;0.60;;;0.50;;
71600;SDS011;59446;52.192;4.628;2022-07-06T03:30:18;1.15;;;0.60;;
71600;SDS011;59446;52.192;4.628;2022-07-06T03:32:43;0.63;;;0.50;;
71600;SDS011;59446;52.192;4.628;2022-07-06T03:35:09;1.80;;;0.60;;
71600;SDS011;59446;52.192;4.628;2022-07-06T03:37:34;1.23;;;0.60;;
71600;SDS011;59446;52.192;4.628;2022-07-06T03:39:59;0.90;;;0.50;;
71600;SDS011;59446;52.192;4.628;2022-07-06T03:42:25;1.50;;;0.50;;
71600;SDS011;59446;52.192;4.628;2022-07-06T03:44:50;0.63;;;0.50;;
71600;SDS011;59446;52.192;4.628;2022-07-06T03:47:15;0.87;;;0.50;;
71600;SDS011;59446;52.192;4.628;2022-07-06T03:49:41;0.77;;;0.50;;
71600;SDS011;59446;52.192;4.628;2022-07-06T03:52:06;0.87;;;0.70;;
71600;SDS011;59446;52.192;4.628;2022-07-06T03:54:31;0.93;;;0.50;;
71600;SDS011;59446;52.192;4.628;2022-07-06T03:56:57;1.73;;;0.53;;
71600;SDS011;59446;52.192;4.628;2022-07-06T03:59:22;1.27;;;0.60;;
71600;SDS011;59446;52.192;4.628;2022-07-06T04:01:47;2.70;;;0.70;;
71600;SDS011;59446;52.192;4.628;2022-07-06T04:04:13;1.97;;;0.63;;
71600;SDS011;59446;52.192;4.628;2022-07-06T04:06:39;0.60;;;0.50;;
71600;SDS011;59446;52.192;4.628;2022-07-06T04:09:04;1.25;;;0.52;;
71600;SDS011;59446;52.192;4.628;2022-07-06T04:11:30;0.50;;;0.50;;
71600;SDS011;59446;52.192;4.628;2022-07-06T04:13:55;0.80;;;0.50;;
71600;SDS011;59446;52.192;4.628;2022-07-06T04:16:21;0.57;;;0.57;;
71600;SDS011;59446;52.192;4.628;2022-07-06T04:18:46;0.70;;;0.50;;
71600;SDS011;59446;52.192;4.628;2022-07-06T04:21:11;1.33;;;0.50;;
71600;SDS011;59446;52.192;4.628;2022-07-06T04:23:37;1.77;;;0.70;;
71600;SDS011;59446;52.192;4.628;2022-07-06T04:26:02;0.50;;;0.40;;
71600;SDS011;59446;52.192;4.628;2022-07-06T04:28:28;2.22;;;0.60;;
71600;SDS011;59446;52.192;4.628;2022-07-06T04:30:53;1.13;;;0.73;;
71600;SDS011;59446;52.192;4.628;2022-07-06T04:33:19;0.80;;;0.50;;
71600;SDS011;59446;52.192;4.628;2022-07-06T04:35:45;0.68;;;0.50;;
71600;SDS011;59446;52.192;4.628;2022-07-06T04:38:10;0.53;;;0.53;;
71600;SDS011;59446;52.192;4.628;2022-07-06T04:40:35;0.50;;;0.50;;
71600;SDS011;59446;52.192;4.628;2022-07-06T04:43:01;1.17;;;0.60;;
71600;SDS011;59446;52.192;4.628;2022-07-06T04:45:26;1.33;;;0.70;;
71600;SDS011;59446;52.192;4.628;2022-07-06T04:47:52;0.60;;;0.50;;
71600;SDS011;59446;52.192;4.628;2022-07-06T04:50:17;0.60;;;0.40;;
71600;SDS011;59446;52.192;4.628;2022-07-06T04:52:43;0.90;;;0.50;;
71600;SDS011;59446;52.192;4.628;2022-07-06T04:55:08;0.60;;;0.57;;
71600;SDS011;59446;52.192;4.628;2022-07-06T04:57:35;0.70;;;0.50;;
71600;SDS011;59446;52.192;4.628;2022-07-06T05:00:00;0.50;;;0.50;;
71600;SDS011;59446;52.192;4.628;2022-07-06T05:02:27;0.50;;;0.50;;
71600;SDS011;59446;52.192;4.628;2022-07-06T05:04:52;0.80;;;0.60;;
71600;SDS011;59446;52.192;4.628;2022-07-06T05:07:18;2.43;;;0.70;;
71600;SDS011;59446;52.192;4.628;2022-07-06T05:09:43;0.50;;;0.50;;
71600;SDS011;59446;52.192;4.628;2022-07-06T05:12:09;0.60;;;0.60;;
71600;SDS011;59446;52.192;4.628;2022-07-06T05:14:35;0.90;;;0.50;;
71600;SDS011;59446;52.192;4.628;2022-07-06T05:17:01;0.43;;;0.40;;
71600;SDS011;59446;52.192;4.628;2022-07-06T05:19:27;0.60;;;0.50;;
71600;SDS011;59446;52.192;4.628;2022-07-06T05:21:52;1.03;;;0.50;;
71600;SDS011;59446;52.192;4.628;2022-07-06T05:24:17;1.27;;;0.65;;
71600;SDS011;59446;52.192;4.628;2022-07-06T05:26:44;1.60;;;0.50;;
71600;SDS011;59446;52.192;4.628;2022-07-06T05:29:09;0.73;;;0.50;;
71600;SDS011;59446;52.192;4.628;2022-07-06T05:31:35;0.60;;;0.50;;
71600;SDS011;59446;52.192;4.628;2022-07-06T05:34:00;3.07;;;0.70;;
71600;SDS011;59446;52.192;4.628;2022-07-06T05:36:26;1.20;;;0.68;;
71600;SDS011;59446;52.192;4.628;2022-07-06T05:38:52;1.20;;;0.53;;
71600;SDS011;59446;52.192;4.628;2022-07-06T05:41:17;1.00;;;0.70;;
71600;SDS011;59446;52.192;4.628;2022-07-06T05:43:42;1.30;;;0.60;;
71600;SDS011;59446;52.192;4.628;2022-07-06T05:46:08;0.90;;;0.60;;
71600;SDS011;59446;52.192;4.628;2022-07-06T05:48:33;0.50;;;0.50;;
71600;SDS011;59446;52.192;4.628;2022-07-06T05:51:18;1.33;;;0.57;;
71600;SDS011;59446;52.192;4.628;2022-07-06T05:53:43;0.50;;;0.50;;
71600;SDS011;59446;52.192;4.628;2022-07-06T05:56:08;1.80;;;0.50;;
71600;SDS011;59446;52.192;4.628;2022-07-06T05:58:34;0.93;;;0.60;;
71600;SDS011;59446;52.192;4.628;2022-07-06T06:00:59;0.80;;;0.50;;
71600;SDS011;59446;52.192;4.628;2022-07-06T06:03:24;0.53;;;0.50;;
71600;SDS011;59446;52.192;4.628;2022-07-06T06:05:50;0.93;;;0.50;;
71600;SDS011;59446;52.192;4.628;2022-07-06T06:08:16;0.97;;;0.60;;
71600;SDS011;59446;52.192;4.628;2022-07-06T06:10:41;1.48;;;0.73;;
71600;SDS011;59446;52.192;4.628;2022-07-06T06:13:07;0.60;;;0.60;;
71600;SDS011;59446;52.192;4.628;2022-07-06T06:15:33;0.43;;;0.40;;
71600;SDS011;59446;52.192;4.628;2022-07-06T06:17:58;0.50;;;0.50;;
71600;SDS011;59446;52.192;4.628;2022-07-06T06:20:24;0.87;;;0.50;;
71600;SDS011;59446;52.192;4.628;2022-07-06T06:22:56;1.05;;;0.60;;
71600;SDS011;59446;52.192;4.628;2022-07-06T06:25:27;0.90;;;0.50;;
71600;SDS011;59446;52.192;4.628;2022-07-06T06:27:54;0.85;;;0.60;;
71600;SDS011;59446;52.192;4.628;2022-07-06T06:30:20;0.50;;;0.50;;
71600;SDS011;59446;52.192;4.628;2022-07-06T06:32:45;0.50;;;0.50;;
71600;SDS011;59446;52.192;4.628;2022-07-06T06:35:11;1.07;;;0.60;;
71600;SDS011;59446;52.192;4.628;2022-07-06T06:37:37;0.50;;;0.50;;
71600;SDS011;59446;52.192;4.628;2022-07-06T06:40:03;0.85;;;0.50;;
71600;SDS011;59446;52.192;4.628;2022-07-06T06:42:30;0.63;;;0.50;;
71600;SDS011;59446;52.192;4.628;2022-07-06T06:44:55;1.15;;;0.50;;
71600;SDS011;59446;52.192;4.628;2022-07-06T06:47:21;1.20;;;0.67;;
71600;SDS011;59446;52.192;4.628;2022-07-06T06:49:46;1.33;;;0.63;;
71600;SDS011;59446;52.192;4.628;2022-07-06T06:52:12;1.60;;;0.70;;
71600;SDS011;59446;52.192;4.628;2022-07-06T06:54:38;2.20;;;0.70;;
71600;SDS011;59446;52.192;4.628;2022-07-06T06:57:03;1.27;;;0.80;;
71600;SDS011;59446;52.192;4.628;2022-07-06T06:59:29;0.57;;;0.55;;
71600;SDS011;59446;52.192;4.628;2022-07-06T07:01:54;1.27;;;0.77;;
71600;SDS011;59446;52.192;4.628;2022-07-06T07:04:19;0.93;;;0.60;;
71600;SDS011;59446;52.192;4.628;2022-07-06T07:06:45;1.10;;;0.60;;
71600;SDS011;59446;52.192;4.628;2022-07-06T07:09:10;0.50;;;0.50;;
71600;SDS011;59446;52.192;4.628;2022-07-06T07:11:35;0.80;;;0.60;;
71600;SDS011;59446;52.192;4.628;2022-07-06T07:14:01;0.95;;;0.60;;
71600;SDS011;59446;52.192;4.628;2022-07-06T07:16:27;0.90;;;0.60;;
71600;SDS011;59446;52.192;4.628;2022-07-06T07:18:52;0.80;;;0.50;;
71600;SDS011;59446;52.192;4.628;2022-07-06T07:21:17;1.05;;;0.65;;
71600;SDS011;59446;52.192;4.628;2022-07-06T07:23:43;0.50;;;0.50;;
71600;SDS011;59446;52.192;4.628;2022-07-06T07:26:09;0.40;;;0.40;;
71600;SDS011;59446;52.192;4.628;2022-07-06T07:28:37;1.38;;;0.50;;
71600;SDS011;59446;52.192;4.628;2022-07-06T07:31:03;1.30;;;0.60;;
71600;SDS011;59446;52.192;4.628;2022-07-06T07:33:29;1.58;;;0.50;;
71600;SDS011;59446;52.192;4.628;2022-07-06T07:35:54;1.47;;;0.60;;
71600;SDS011;59446;52.192;4.628;2022-07-06T07:38:20;0.85;;;0.60;;
71600;SDS011;59446;52.192;4.628;2022-07-06T07:40:45;0.80;;;0.60;;
71600;SDS011;59446;52.192;4.628;2022-07-06T07:43:10;0.60;;;0.60;;
71600;SDS011;59446;52.192;4.628;2022-07-06T07:45:36;0.70;;;0.60;;
71600;SDS011;59446;52.192;4.628;2022-07-06T07:48:02;1.58;;;0.50;;
71600;SDS011;59446;52.192;4.628;2022-07-06T07:50:28;3.23;;;0.60;;
71600;SDS011;59446;52.192;4.628;2022-07-06T07:52:54;0.75;;;0.60;;
71600;SDS011;59446;52.192;4.628;2022-07-06T07:55:19;9.87;;;0.80;;
71600;SDS011;59446;52.192;4.628;2022-07-06T07:57:45;1.17;;;0.63;;
71600;SDS011;59446;52.192;4.628;2022-07-06T08:00:10;6.07;;;0.82;;
71600;SDS011;59446;52.192;4.628;2022-07-06T08:02:36;2.70;;;0.60;;
71600;SDS011;59446;52.192;4.628;2022-07-06T08:05:02;1.20;;;0.70;;
71600;SDS011;59446;52.192;4.628;2022-07-06T08:07:28;2.47;;;0.57;;
71600;SDS011;59446;52.192;4.628;2022-07-06T08:09:53;1.07;;;0.60;;
71600;SDS011;59446;52.192;4.628;2022-07-06T08:12:19;1.00;;;0.70;;
71600;SDS011;59446;52.192;4.628;2022-07-06T08:14:44;0.90;;;0.52;;
71600;SDS011;59446;52.192;4.628;2022-07-06T08:17:09;1.87;;;0.70;;
71600;SDS011;59446;52.192;4.628;2022-07-06T08:19:35;1.47;;;0.80;;
71600;SDS011;59446;52.192;4.628;2022-07-06T08:22:00;3.43;;;1.10;;
71600;SDS011;59446;52.192;4.628;2022-07-06T08:24:26;2.30;;;0.80;;
71600;SDS011;59446;52.192;4.628;2022-07-06T08:26:51;3.92;;;0.88;;
71600;SDS011;59446;52.192;4.628;2022-07-06T08:29:16;4.40;;;0.73;;
71600;SDS011;59446;52.192;4.628;2022-07-06T08:31:42;1.23;;;0.60;;
71600;SDS011;59446;52.192;4.628;2022-07-06T08:34:07;3.40;;;0.70;;
71600;SDS011;59446;52.192;4.628;2022-07-06T08:36:33;0.87;;;0.53;;
71600;SDS011;59446;52.192;4.628;2022-07-06T08:38:58;1.77;;;0.53;;
71600;SDS011;59446;52.192;4.628;2022-07-06T08:41:25;3.30;;;0.60;;
71600;SDS011;59446;52.192;4.628;2022-07-06T08:43:53;3.65;;;1.23;;
71600;SDS011;59446;52.192;4.628;2022-07-06T08:46:19;5.43;;;0.90;;
71600;SDS011;59446;52.192;4.628;2022-07-06T08:48:46;5.95;;;1.63;;
71600;SDS011;59446;52.192;4.628;2022-07-06T08:51:13;2.95;;;1.10;;
71600;SDS011;59446;52.192;4.628;2022-07-06T08:53:42;2.03;;;0.80;;
71600;SDS011;59446;52.192;4.628;2022-07-06T08:56:09;2.08;;;0.73;;
71600;SDS011;59446;52.192;4.628;2022-07-06T08:58:34;2.80;;;0.73;;
71600;SDS011;59446;52.192;4.628;2022-07-06T09:01:00;1.70;;;0.80;;
71600;SDS011;59446;52.192;4.628;2022-07-06T09:03:25;2.95;;;1.00;;
71600;SDS011;59446;52.192;4.628;2022-07-06T09:05:52;1.40;;;0.70;;
71600;SDS011;59446;52.192;4.628;2022-07-06T09:08:23;2.00;;;0.77;;
71600;SDS011;59446;52.192;4.628;2022-07-06T09:10:52;1.45;;;0.80;;
71600;SDS011;59446;52.192;4.628;2022-07-06T09:13:17;4.47;;;0.93;;
71600;SDS011;59446;52.192;4.628;2022-07-06T09:15:43;4.30;;;1.20;;
71600;SDS011;59446;52.192;4.628;2022-07-06T09:18:08;2.60;;;0.93;;
71600;SDS011;59446;52.192;4.628;2022-07-06T09:20:34;3.90;;;1.43;;
71600;SDS011;59446;52.192;4.628;2022-07-06T09:23:00;2.05;;;1.05;;
71600;SDS011;59446;52.192;4.628;2022-07-06T09:25:27;3.37;;;1.20;;
71600;SDS011;59446;52.192;4.628;2022-07-06T09:27:53;6.30;;;1.42;;
71600;SDS011;59446;52.192;4.628;2022-07-06T09:30:22;5.00;;;1.70;;
71600;SDS011;59446;52.192;4.628;2022-07-06T09:32:49;6.50;;;2.00;;
71600;SDS011;59446;52.192;4.628;2022-07-06T09:35:26;8.05;;;1.92;;
71600;SDS011;59446;52.192;4.628;2022-07-06T09:40:26;6.47;;;1.90;;
71600;SDS011;59446;52.192;4.628;2022-07-06T09:43:06;7.65;;;1.95;;
71600;SDS011;59446;52.192;4.628;2022-07-06T09:45:39;8.80;;;2.47;;
71600;SDS011;59446;52.192;4.628;2022-07-06T09:48:07;4.37;;;1.87;;
71600;SDS011;59446;52.192;4.628;2022-07-06T09:50:39;4.82;;;1.30;;
71600;SDS011;59446;52.192;4.628;2022-07-06T09:53:06;5.40;;;1.70;;
71600;SDS011;59446;52.192;4.628;2022-07-06T09:55:32;5.53;;;1.30;;
71600;SDS011;59446;52.192;4.628;2022-07-06T09:57:58;5.70;;;1.80;;
71600;SDS011;59446;52.192;4.628;2022-07-06T10:00:23;8.33;;;2.13;;
71600;SDS011;59446;52.192;4.628;2022-07-06T10:02:49;5.23;;;2.07;;
71600;SDS011;59446;52.192;4.628;2022-07-06T10:05:16;6.20;;;1.25;;
71600;SDS011;59446;52.192;4.628;2022-07-06T10:07:43;7.97;;;1.50;;
71600;SDS011;59446;52.192;4.628;2022-07-06T10:10:11;7.60;;;1.70;;
71600;SDS011;59446;52.192;4.628;2022-07-06T10:12:37;2.95;;;0.90;;
71600;SDS011;59446;52.192;4.628;2022-07-06T10:15:03;2.58;;;1.00;;
71600;SDS011;59446;52.192;4.628;2022-07-06T10:17:30;3.00;;;1.10;;
71600;SDS011;59446;52.192;4.628;2022-07-06T10:19:55;5.35;;;0.93;;
71600;SDS011;59446;52.192;4.628;2022-07-06T10:22:22;1.92;;;0.70;;
71600;SDS011;59446;52.192;4.628;2022-07-06T10:24:47;1.73;;;0.70;;
71600;SDS011;59446;52.192;4.628;2022-07-06T10:27:14;2.58;;;1.20;;
71600;SDS011;59446;52.192;4.628;2022-07-06T10:29:39;1.77;;;0.70;;
71600;SDS011;59446;52.192;4.628;2022-07-06T10:32:05;1.43;;;0.70;;
71600;SDS011;59446;52.192;4.628;2022-07-06T10:34:32;1.15;;;0.75;;
71600;SDS011;59446;52.192;4.628;2022-07-06T10:36:59;1.92;;;0.90;;
71600;SDS011;59446;52.192;4.628;2022-07-06T10:39:33;1.70;;;0.70;;
71600;SDS011;59446;52.192;4.628;2022-07-06T10:45:11;0.90;;;0.68;;
71600;SDS011;59446;52.192;4.628;2022-07-06T10:47:37;1.75;;;0.82;;
71600;SDS011;59446;52.192;4.628;2022-07-06T10:50:04;5.13;;;0.90;;
71600;SDS011;59446;52.192;4.628;2022-07-06T10:52:52;2.22;;;0.90;;
71600;SDS011;59446;52.192;4.628;2022-07-06T10:55:29;1.42;;;0.70;;
71600;SDS011;59446;52.192;4.628;2022-07-06T10:57:59;1.17;;;0.70;;
71600;SDS011;59446;52.192;4.628;2022-07-06T11:00:26;2.25;;;0.75;;
71600;SDS011;59446;52.192;4.628;2022-07-06T11:02:51;2.03;;;0.90;;
71600;SDS011;59446;52.192;4.628;2022-07-06T11:08:05;1.10;;;0.60;;
71600;SDS011;59446;52.192;4.628;2022-07-06T11:10:45;4.00;;;0.80;;
71600;SDS011;59446;52.192;4.628;2022-07-06T11:13:24;2.08;;;0.77;;
71600;SDS011;59446;52.192;4.628;2022-07-06T11:15:59;2.43;;;0.70;;
71600;SDS011;59446;52.192;4.628;2022-07-06T11:18:27;1.55;;;0.70;;
71600;SDS011;59446;52.192;4.628;2022-07-06T11:23:45;2.20;;;0.80;;
71600;SDS011;59446;52.192;4.628;2022-07-06T11:26:13;1.40;;;0.80;;
71600;SDS011;59446;52.192;4.628;2022-07-06T11:28:38;0.60;;;0.60;;
71600;SDS011;59446;52.192;4.628;2022-07-06T11:31:04;3.03;;;0.97;;
71600;SDS011;59446;52.192;4.628;2022-07-06T11:33:30;1.20;;;0.73;;
71600;SDS011;59446;52.192;4.628;2022-07-06T11:36:12;0.90;;;0.70;;
71600;SDS011;59446;52.192;4.628;2022-07-06T11:38:46;0.85;;;0.60;;
71600;SDS011;59446;52.192;4.628;2022-07-06T11:41:13;2.08;;;0.93;;
71600;SDS011;59446;52.192;4.628;2022-07-06T11:43:42;2.10;;;0.77;;
71600;SDS011;59446;52.192;4.628;2022-07-06T11:49:03;1.90;;;0.95;;
71600;SDS011;59446;52.192;4.628;2022-07-06T11:51:31;1.23;;;0.77;;
71600;SDS011;59446;52.192;4.628;2022-07-06T11:54:00;2.42;;;0.90;;
71600;SDS011;59446;52.192;4.628;2022-07-06T11:56:28;1.98;;;0.95;;
71600;SDS011;59446;52.192;4.628;2022-07-06T11:58:55;6.75;;;0.88;;
71600;SDS011;59446;52.192;4.628;2022-07-06T12:01:22;3.07;;;1.00;;
71600;SDS011;59446;52.192;4.628;2022-07-06T12:03:49;2.53;;;0.80;;
71600;SDS011;59446;52.192;4.628;2022-07-06T12:06:18;3.72;;;0.90;;
71600;SDS011;59446;52.192;4.628;2022-07-06T12:08:48;1.77;;;0.97;;
71600;SDS011;59446;52.192;4.628;2022-07-06T12:11:28;1.80;;;0.85;;
71600;SDS011;59446;52.192;4.628;2022-07-06T12:13:56;2.60;;;0.82;;
71600;SDS011;59446;52.192;4.628;2022-07-06T12:16:32;2.03;;;0.70;;
71600;SDS011;59446;52.192;4.628;2022-07-06T12:18:59;2.97;;;0.90;;
71600;SDS011;59446;52.192;4.628;2022-07-06T12:21:26;2.00;;;0.73;;
71600;SDS011;59446;52.192;4.628;2022-07-06T12:23:52;3.10;;;1.07;;
71600;SDS011;59446;52.192;4.628;2022-07-06T12:26:19;1.50;;;0.80;;
71600;SDS011;59446;52.192;4.628;2022-07-06T12:29:09;4.47;;;1.17;;
71600;SDS011;59446;52.192;4.628;2022-07-06T12:31:38;2.30;;;0.83;;
71600;SDS011;59446;52.192;4.628;2022-07-06T12:34:11;2.05;;;0.73;;
71600;SDS011;59446;52.192;4.628;2022-07-06T12:36:58;1.58;;;0.70;;
71600;SDS011;59446;52.192;4.628;2022-07-06T12:39:25;1.33;;;0.80;;
71600;SDS011;59446;52.192;4.628;2022-07-06T12:42:00;0.90;;;0.80;;
71600;SDS011;59446;52.192;4.628;2022-07-06T12:44:30;2.65;;;0.77;;
71600;SDS011;59446;52.192;4.628;2022-07-06T12:49:29;3.97;;;1.42;;
71600;SDS011;59446;52.192;4.628;2022-07-06T12:51:57;2.00;;;0.70;;
71600;SDS011;59446;52.192;4.628;2022-07-06T12:54:24;1.67;;;0.90;;
71600;SDS011;59446;52.192;4.628;2022-07-06T12:56:55;1.10;;;0.63;;
71600;SDS011;59446;52.192;4.628;2022-07-06T12:59:22;2.80;;;0.80;;
71600;SDS011;59446;52.192;4.628;2022-07-06T13:01:48;1.60;;;0.80;;
71600;SDS011;59446;52.192;4.628;2022-07-06T13:04:15;1.77;;;0.90;;
71600;SDS011;59446;52.192;4.628;2022-07-06T13:06:41;2.45;;;0.80;;
71600;SDS011;59446;52.192;4.628;2022-07-06T13:09:06;1.90;;;0.70;;
71600;SDS011;59446;52.192;4.628;2022-07-06T13:11:31;2.17;;;1.00;;
71600;SDS011;59446;52.192;4.628;2022-07-06T13:13:58;2.92;;;1.00;;
71600;SDS011;59446;52.192;4.628;2022-07-06T13:16:24;2.40;;;0.80;;
71600;SDS011;59446;52.192;4.628;2022-07-06T13:18:55;1.77;;;0.90;;
71600;SDS011;59446;52.192;4.628;2022-07-06T13:21:21;1.90;;;0.70;;
71600;SDS011;59446;52.192;4.628;2022-07-06T13:23:46;3.67;;;1.53;;
71600;SDS011;59446;52.192;4.628;2022-07-06T13:26:11;3.10;;;0.95;;
71600;SDS011;59446;52.192;4.628;2022-07-06T13:28:37;1.80;;;0.90;;
71600;SDS011;59446;52.192;4.628;2022-07-06T13:31:02;1.27;;;0.90;;
71600;SDS011;59446;52.192;4.628;2022-07-06T13:33:28;2.07;;;1.10;;
71600;SDS011;59446;52.192;4.628;2022-07-06T13:35:53;2.87;;;1.03;;
71600;SDS011;59446;52.192;4.628;2022-07-06T13:38:18;2.03;;;1.02;;
71600;SDS011;59446;52.192;4.628;2022-07-06T13:40:44;2.53;;;1.13;;
71600;SDS011;59446;52.192;4.628;2022-07-06T13:43:09;2.23;;;1.13;;
71600;SDS011;59446;52.192;4.628;2022-07-06T13:45:34;2.07;;;1.10;;
71600;SDS011;59446;52.192;4.628;2022-07-06T13:48:00;3.23;;;1.17;;
71600;SDS011;59446;52.192;4.628;2022-07-06T13:50:25;1.90;;;1.02;;
71600;SDS011;59446;52.192;4.628;2022-07-06T13:52:52;3.00;;;1.10;;
71600;SDS011;59446;52.192;4.628;2022-07-06T13:55:17;1.75;;;1.20;;
71600;SDS011;59446;52.192;4.628;2022-07-06T13:57:43;2.43;;;1.30;;
71600;SDS011;59446;52.192;4.628;2022-07-06T14:00:08;5.33;;;1.60;;
71600;SDS011;59446;52.192;4.628;2022-07-06T14:02:34;6.70;;;1.50;;
71600;SDS011;59446;52.192;4.628;2022-07-06T14:04:59;2.93;;;1.20;;
71600;SDS011;59446;52.192;4.628;2022-07-06T14:07:25;3.77;;;1.40;;
71600;SDS011;59446;52.192;4.628;2022-07-06T14:09:50;3.87;;;1.40;;
71600;SDS011;59446;52.192;4.628;2022-07-06T14:12:17;3.75;;;1.52;;
71600;SDS011;59446;52.192;4.628;2022-07-06T14:14:42;2.90;;;1.43;;
71600;SDS011;59446;52.192;4.628;2022-07-06T14:17:07;4.13;;;1.73;;
71600;SDS011;59446;52.192;4.628;2022-07-06T14:19:33;4.70;;;1.63;;
71600;SDS011;59446;52.192;4.628;2022-07-06T14:21:58;3.93;;;1.67;;
71600;SDS011;59446;52.192;4.628;2022-07-06T14:24:23;3.67;;;1.50;;
71600;SDS011;59446;52.192;4.628;2022-07-06T14:26:49;4.47;;;1.80;;
71600;SDS011;59446;52.192;4.628;2022-07-06T14:29:14;3.00;;;1.17;;
71600;SDS011;59446;52.192;4.628;2022-07-06T14:31:40;5.33;;;1.70;;
71600;SDS011;59446;52.192;4.628;2022-07-06T14:34:05;3.17;;;1.67;;
71600;SDS011;59446;52.192;4.628;2022-07-06T14:36:30;3.85;;;1.42;;
71600;SDS011;59446;52.192;4.628;2022-07-06T14:38:56;5.07;;;1.60;;
71600;SDS011;59446;52.192;4.628;2022-07-06T14:41:21;4.60;;;1.57;;
71600;SDS011;59446;52.192;4.628;2022-07-06T14:43:47;3.33;;;1.83;;
71600;SDS011;59446;52.192;4.628;2022-07-06T14:46:12;7.15;;;1.58;;
71600;SDS011;59446;52.192;4.628;2022-07-06T14:48:37;4.77;;;1.60;;
71600;SDS011;59446;52.192;4.628;2022-07-06T14:51:03;3.77;;;1.60;;
71600;SDS011;59446;52.192;4.628;2022-07-06T14:53:28;3.70;;;1.70;;
71600;SDS011;59446;52.192;4.628;2022-07-06T14:55:55;5.45;;;1.80;;
71600;SDS011;59446;52.192;4.628;2022-07-06T14:58:20;3.87;;;1.77;;
71600;SDS011;59446;52.192;4.628;2022-07-06T15:00:47;4.32;;;1.80;;